High Gate, Missouri
Current Conditions -  °F | °C
As of 5:53 PM on Friday 19 Dec 2014 (Local Time) from KVIH Reporting Station
Overcast Overcast  
Wind Chill: 31°   Ceiling: 900
Heat Index: 35°   Visibility: 10mi
Dew Point: 31°   Wind: 5mph
Humidity: 85%   Direction: 90°E
Pressure: 30.2"   Gusts: NA
Location:  37.9936°N, 91.5964°W
Report Text: KVIH 192353Z AUTO 09004KT 10SM OVC009 02/M01 A3020 RMK AO2 SLP234 T00171006 10017 20011 56002
Loading
Personal Weather Stations






























Interactive Weather Map New forecast layout! Learn more

10-Day Weather Forecast

Advertisements
Track Severe Weather on mobile